Henderson, Nevada
Current Conditions -  °F | °C
As of 5:35 PM on Wednesday 22 Oct 2014 (Local Time) from KBVU Reporting Station
Clear Clear  
Wind Chill: 26°   Ceiling: Unl
Heat Index: 26°   Visibility: 10mi
Dew Point: -1°   Wind: 7mph
Humidity: 17%   Direction: 30°NNE
Pressure: 29.99"   Gusts: NA
Location:  36.03°N, 114.98°W
Report Text: KBVU 230035Z AUTO 03006KT 10SM CLR 26/M01 A2999 RMK AO2
Loading
Personal Weather Stations






























Interactive Weather Map
Tropical Storm Tracking
New forecast layout! Learn more

10-Day Weather Forecast

Advertisements
Track Severe Weather on mobile